Time;durP1;ratioP1;P1;durP2;ratioP2;P2;SDS_P1;SDS_P2;PMS_P1;PMS_P2;Temp;Humidity;BMP_temperature;BMP_pressure;BME280_temperature;BME280_humidity;BME280_pressure;Samples;Min_cycle;Max_cycle;Signal;HPM_P1;HPM_P2
2023/08/12 00:00:19;;;;;;;6.25;2.45;;;25.00;93.70;;;;;;5053741;28;20029;-82
2023/08/12 00:02:46;;;;;;;5.68;3.95;;;25.00;93.70;;;;;;5054602;28;20037;-81
2023/08/12 00:05:12;;;;;;;7.40;3.78;;;25.00;93.80;;;;;;5054304;28;20029;-82
2023/08/12 00:07:42;;;;;;;4.60;3.15;;;25.00;94.00;;;;;;5054556;28;20481;-82
2023/08/12 00:10:10;;;;;;;4.82;3.05;;;25.00;93.90;;;;;;5054700;28;20104;-81
2023/08/12 00:12:36;;;;;;;3.45;3.10;;;24.90;93.80;;;;;;5054544;28;20112;-80
2023/08/12 00:15:05;;;;;;;9.23;6.22;;;25.00;93.90;;;;;;5053025;28;20112;-80
2023/08/12 00:17:30;;;;;;;5.93;2.95;;;24.90;94.70;;;;;;5054682;28;20087;-81
2023/08/12 00:19:56;;;;;;;3.38;2.72;;;24.80;94.90;;;;;;5052768;28;20095;-80
2023/08/12 00:22:22;;;;;;;6.38;3.05;;;24.80;94.70;;;;;;5054254;28;20029;-81
2023/08/12 00:24:48;;;;;;;4.93;2.40;;;24.80;94.60;;;;;;5052796;28;20470;-81
2023/08/12 00:27:14;;;;;;;3.65;2.72;;;24.80;94.50;;;;;;5054128;28;20079;-81
2023/08/12 00:29:40;;;;;;;6.18;3.53;;;24.80;94.40;;;;;;5052752;28;20432;-82
2023/08/12 00:32:05;;;;;;;4.80;2.90;;;24.80;94.40;;;;;;5054041;28;20116;-81
2023/08/12 00:34:31;;;;;;;5.05;2.22;;;24.90;94.40;;;;;;5054073;28;20029;-81
2023/08/12 00:36:57;;;;;;;5.68;2.85;;;24.90;94.30;;;;;;5054202;28;20029;-81
2023/08/12 00:39:59;;;;;;;3.92;2.00;;;24.90;94.10;;;;;;5053854;28;20087;-81
2023/08/12 00:42:25;;;;;;;5.10;1.90;;;24.90;93.90;;;;;;5032345;28;20405;-82
2023/08/12 00:44:51;;;;;;;3.40;2.72;;;24.90;94.00;;;;;;5032646;28;20116;-82
2023/08/12 00:47:17;;;;;;;2.80;1.80;;;24.80;94.00;;;;;;5034187;28;20033;-82
2023/08/12 00:49:45;;;;;;;5.95;3.67;;;24.80;94.00;;;;;;5034151;28;20037;-82
2023/08/12 00:52:14;;;;;;;4.63;3.28;;;24.80;94.10;;;;;;5032908;28;20032;-82
2023/08/12 00:54:40;;;;;;;5.15;2.88;;;24.80;94.30;;;;;;5032982;28;20041;-82
2023/08/12 00:57:07;;;;;;;3.55;2.47;;;24.80;94.20;;;;;;5033519;28;20596;-81
2023/08/12 00:59:35;;;;;;;3.47;2.03;;;24.80;94.10;;;;;;5032504;28;20028;-80
2023/08/12 01:02:01;;;;;;;4.53;1.77;;;24.80;94.10;;;;;;5033669;28;20530;-80
2023/08/12 01:04:27;;;;;;;7.53;2.97;;;24.80;94.10;;;;;;5034008;28;20113;-80
2023/08/12 01:06:53;;;;;;;5.43;3.28;;;24.80;94.20;;;;;;5033407;28;20090;-80
2023/08/12 01:09:19;;;;;;;4.47;2.30;;;24.80;94.20;;;;;;5033652;28;20416;-79
2023/08/12 01:12:01;;;;;;;3.42;2.15;;;24.80;94.30;;;;;;5032441;28;20088;-79
2023/08/12 01:14:53;;;;;;;3.38;1.77;;;24.80;94.20;;;;;;5033432;28;20032;-79
2023/08/12 01:17:19;;;;;;;5.00;2.45;;;24.70;94.30;;;;;;5035651;28;20124;-79
2023/08/12 01:19:47;;;;;;;3.95;1.88;;;24.80;94.30;;;;;;5038045;28;20113;-79
2023/08/12 01:22:14;;;;;;;2.45;1.90;;;24.70;94.20;;;;;;5037361;28;20029;-79
2023/08/12 01:24:41;;;;;;;3.22;1.98;;;24.70;94.10;;;;;;5037580;28;20021;-80
2023/08/12 01:27:09;;;;;;;2.78;1.40;;;24.70;94.20;;;;;;5037574;28;20033;-79
2023/08/12 01:29:37;;;;;;;3.08;1.73;;;24.70;94.10;;;;;;5037532;28;20026;-80
2023/08/12 01:32:16;;;;;;;6.28;2.08;;;24.80;94.10;;;;;;5037205;28;20112;-80
2023/08/12 01:35:00;;;;;;;4.78;2.00;;;24.70;94.10;;;;;;5037763;28;20040;-81
2023/08/12 01:37:29;;;;;;;5.63;4.00;;;24.70;94.20;;;;;;5037307;28;20044;-81
2023/08/12 01:39:56;;;;;;;2.83;1.85;;;24.60;94.80;;;;;;5037349;28;20033;-80
2023/08/12 01:42:24;;;;;;;5.45;2.97;;;24.60;94.80;;;;;;5054823;28;20068;-80
2023/08/12 01:44:50;;;;;;;4.88;2.75;;;24.60;94.60;;;;;;5057395;28;20074;-81
2023/08/12 01:47:15;;;;;;;4.18;2.50;;;24.60;94.60;;;;;;5057132;28;20037;-81
2023/08/12 01:49:41;;;;;;;3.22;2.83;;;24.60;94.50;;;;;;5057397;28;20036;-80
2023/08/12 01:52:09;;;;;;;6.68;3.38;;;24.60;94.50;;;;;;5057572;28;20025;-80
2023/08/12 01:54:35;;;;;;;3.53;2.95;;;24.60;94.70;;;;;;5056133;28;20402;-81
2023/08/12 01:57:05;;;;;;;6.03;3.60;;;24.60;94.70;;;;;;5039580;28;20101;-81
2023/08/12 01:59:37;;;;;;;6.95;3.30;;;24.60;94.80;;;;;;5056973;28;20033;-82
2023/08/12 02:02:03;;;;;;;5.35;3.40;;;24.60;94.70;;;;;;5057000;28;20029;-83
2023/08/12 02:04:29;;;;;;;3.95;2.90;;;24.60;94.70;;;;;;5055573;28;20559;-83
2023/08/12 02:06:55;;;;;;;4.30;3.15;;;24.50;94.80;;;;;;5057090;28;20063;-82
2023/08/12 02:09:21;;;;;;;6.25;3.53;;;24.60;94.80;;;;;;5056767;28;20029;-83
2023/08/12 02:11:47;;;;;;;3.78;2.70;;;24.50;94.70;;;;;;5055806;28;20035;-82
2023/08/12 02:14:12;;;;;;;6.38;3.67;;;24.60;94.80;;;;;;5056657;28;20033;-81
2023/08/12 02:16:38;;;;;;;7.60;4.15;;;24.60;94.80;;;;;;5056617;28;20473;-81
2023/08/12 02:19:04;;;;;;;6.38;3.88;;;24.50;94.80;;;;;;5056447;28;20086;-81
2023/08/12 02:21:29;;;;;;;5.18;3.17;;;24.50;95.10;;;;;;5056510;28;20052;-82
2023/08/12 02:23:55;;;;;;;4.78;2.60;;;24.50;95.10;;;;;;5056074;28;20108;-82
2023/08/12 02:26:21;;;;;;;8.60;5.60;;;24.50;95.00;;;;;;5056443;28;20032;-81
2023/08/12 02:28:46;;;;;;;7.20;5.32;;;24.50;95.20;;;;;;5056285;28;20029;-80
2023/08/12 02:31:12;;;;;;;6.78;3.83;;;24.50;95.70;;;;;;5056813;28;20032;-80
2023/08/12 02:33:38;;;;;;;8.88;5.72;;;24.40;95.60;;;;;;5056558;28;20032;-80
2023/08/12 02:36:04;;;;;;;8.85;5.20;;;24.40;95.60;;;;;;5055019;28;20079;-80
2023/08/12 02:38:29;;;;;;;6.13;5.05;;;24.40;95.80;;;;;;5056095;28;20033;-80
2023/08/12 02:40:55;;;;;;;5.35;4.25;;;24.40;95.90;;;;;;5056165;28;20465;-80
2023/08/12 02:43:21;;;;;;;5.43;4.57;;;24.40;96.00;;;;;;5056393;28;20103;-80
2023/08/12 02:45:46;;;;;;;7.13;4.32;;;24.40;95.90;;;;;;5056327;28;20390;-80
2023/08/12 02:48:12;;;;;;;6.55;3.03;;;24.40;95.70;;;;;;5055998;28;20384;-80
2023/08/12 02:50:38;;;;;;;3.63;3.15;;;24.40;95.60;;;;;;5056520;28;20025;-79
2023/08/12 02:53:05;;;;;;;5.25;4.13;;;24.40;95.60;;;;;;5055892;28;20029;-80
2023/08/12 02:55:33;;;;;;;6.57;4.03;;;24.40;95.60;;;;;;5054663;28;20029;-80
2023/08/12 02:58:00;;;;;;;10.23;6.82;;;24.40;95.60;;;;;;5055793;28;20033;-80
2023/08/12 03:00:27;;;;;;;5.70;4.10;;;24.40;95.80;;;;;;5056262;28;20049;-79
2023/08/12 03:02:53;;;;;;;5.65;4.28;;;24.30;96.10;;;;;;5055718;28;20481;-80
2023/08/12 03:05:18;;;;;;;4.55;3.45;;;24.30;96.10;;;;;;5055979;28;20044;-80
2023/08/12 03:07:44;;;;;;;4.78;3.85;;;24.30;96.00;;;;;;5055626;28;20037;-80
2023/08/12 03:10:10;;;;;;;5.35;3.80;;;24.30;96.00;;;;;;5055586;28;20029;-80
2023/08/12 03:12:36;;;;;;;4.13;3.13;;;24.30;95.90;;;;;;5055242;28;20061;-80
2023/08/12 03:15:02;;;;;;;6.45;4.20;;;24.40;96.00;;;;;;5055217;28;20178;-81
2023/08/12 03:17:28;;;;;;;4.05;3.63;;;24.30;96.00;;;;;;5054543;28;20037;-81
2023/08/12 03:19:56;;;;;;;6.07;4.35;;;24.30;96.10;;;;;;5055436;28;20029;-81
2023/08/12 03:22:22;;;;;;;6.90;4.13;;;24.30;96.30;;;;;;5055050;28;20440;-82
2023/08/12 03:24:48;;;;;;;3.95;3.55;;;24.30;96.20;;;;;;5055024;28;20037;-81
2023/08/12 03:27:14;;;;;;;8.90;5.65;;;24.30;96.10;;;;;;5055264;28;20033;-81
2023/08/12 03:29:39;;;;;;;10.35;6.85;;;24.30;96.10;;;;;;5055767;28;20033;-81
2023/08/12 03:32:05;;;;;;;10.40;6.32;;;24.30;96.00;;;;;;5055189;28;20040;-82
2023/08/12 03:34:31;;;;;;;10.18;7.88;;;24.30;96.10;;;;;;5055386;28;20033;-81
2023/08/12 03:36:56;;;;;;;6.95;3.85;;;24.30;96.20;;;;;;5054551;28;20115;-81
2023/08/12 03:39:22;;;;;;;8.50;5.80;;;24.30;96.30;;;;;;5054305;28;20529;-81
2023/08/12 03:41:50;;;;;;;7.05;5.53;;;24.30;96.30;;;;;;5054605;28;20079;-80
2023/08/12 03:44:15;;;;;;;6.50;4.90;;;24.30;96.60;;;;;;5054619;28;20041;-80
2023/08/12 03:46:41;;;;;;;12.60;8.13;;;24.20;96.70;;;;;;5054878;28;20055;-80
2023/08/12 03:49:07;;;;;;;9.25;6.15;;;24.20;96.80;;;;;;5053947;28;20032;-81
2023/08/12 03:51:32;;;;;;;7.72;5.32;;;24.20;96.80;;;;;;5055088;28;20465;-81
2023/08/12 03:53:58;;;;;;;5.03;4.32;;;24.20;96.80;;;;;;5054641;28;20045;-81
2023/08/12 03:56:24;;;;;;;6.80;3.85;;;24.20;96.80;;;;;;5053977;28;20025;-81
2023/08/12 03:58:51;;;;;;;4.45;3.00;;;24.20;96.70;;;;;;5054581;28;20485;-82
2023/08/12 04:01:16;;;;;;;5.35;4.10;;;24.20;96.50;;;;;;5054674;28;20095;-82
2023/08/12 04:03:42;;;;;;;6.32;4.78;;;24.20;96.40;;;;;;5054577;28;20033;-82
2023/08/12 04:06:08;;;;;;;7.97;6.10;;;24.20;96.30;;;;;;5054249;28;20032;-82
2023/08/12 04:08:34;;;;;;;10.23;7.13;;;24.20;96.30;;;;;;5054411;28;20037;-82
2023/08/12 04:11:00;;;;;;;7.85;4.82;;;24.20;96.50;;;;;;5054509;28;20033;-82
2023/08/12 04:13:25;;;;;;;9.75;7.07;;;24.20;96.60;;;;;;5054493;28;20147;-82
2023/08/12 04:15:53;;;;;;;4.45;3.75;;;24.20;96.70;;;;;;5054388;28;20056;-82
2023/08/12 04:18:19;;;;;;;6.10;5.43;;;24.20;96.80;;;;;;5054202;28;20036;-82
2023/08/12 04:20:46;;;;;;;7.50;4.53;;;24.20;96.70;;;;;;5054227;28;20090;-82
2023/08/12 04:23:12;;;;;;;5.63;4.43;;;24.20;96.60;;;;;;5054129;28;20082;-82
2023/08/12 04:25:38;;;;;;;7.80;7.00;;;24.20;96.60;;;;;;5053828;28;20478;-82
2023/08/12 04:28:04;;;;;;;10.25;7.50;;;24.10;97.10;;;;;;5053005;28;20052;-82
2023/08/12 04:30:30;;;;;;;8.20;6.90;;;24.10;97.30;;;;;;5053755;28;20047;-82
2023/08/12 04:32:55;;;;;;;7.07;5.55;;;24.00;97.60;;;;;;5036292;28;20048;-83
2023/08/12 04:35:21;;;;;;;6.25;5.20;;;24.00;97.60;;;;;;5054302;28;20116;-83
2023/08/12 04:37:47;;;;;;;15.23;10.90;;;24.00;97.70;;;;;;5053944;28;20048;-82
2023/08/12 04:40:12;;;;;;;9.57;7.00;;;24.00;98.20;;;;;;5052636;28;20032;-82
2023/08/12 04:42:38;;;;;;;9.75;6.65;;;23.90;98.30;;;;;;5053818;28;20080;-82
2023/08/12 04:45:04;;;;;;;6.97;4.82;;;23.90;98.70;;;;;;5053896;28;20063;-82
2023/08/12 04:47:30;;;;;;;8.63;6.15;;;23.90;98.70;;;;;;5054408;28;20172;-82
2023/08/12 04:49:56;;;;;;;14.07;10.65;;;23.90;98.60;;;;;;5054588;28;20033;-82
2023/08/12 04:52:21;;;;;;;8.35;7.10;;;23.80;99.50;;;;;;5052982;28;20053;-82
2023/08/12 04:54:47;;;;;;;12.20;8.43;;;23.70;99.40;;;;;;5053739;28;20449;-82
2023/08/12 04:57:12;;;;;;;8.25;7.45;;;23.70;99.50;;;;;;5053353;28;20090;-82
2023/08/12 04:59:38;;;;;;;6.93;5.32;;;23.80;99.40;;;;;;5053433;28;20029;-82
2023/08/12 05:02:04;;;;;;;11.75;6.40;;;23.80;99.30;;;;;;5053435;28;20029;-82
2023/08/12 05:04:29;;;;;;;6.13;4.97;;;23.80;99.20;;;;;;5052332;28;20033;-82
2023/08/12 05:06:55;;;;;;;15.70;11.90;;;23.90;99.20;;;;;;5053331;28;20029;-82
2023/08/12 05:09:21;;;;;;;11.70;9.07;;;23.80;99.90;;;;;;5052828;28;20446;-82
2023/08/12 05:11:46;;;;;;;13.25;10.02;;;23.80;99.90;;;;;;5054112;28;20461;-82
2023/08/12 05:14:12;;;;;;;14.25;8.57;;;23.80;99.90;;;;;;5053518;28;20120;-82
2023/08/12 05:16:38;;;;;;;13.65;10.43;;;23.80;99.90;;;;;;5052300;28;20041;-82
2023/08/12 05:19:03;;;;;;;9.43;7.90;;;23.80;99.90;;;;;;5052226;28;20056;-82
2023/08/12 05:21:29;;;;;;;12.10;9.98;;;23.80;99.90;;;;;;5053565;28;20104;-82
2023/08/12 05:23:55;;;;;;;12.73;9.65;;;23.80;99.90;;;;;;5053372;28;20029;-83
2023/08/12 05:26:20;;;;;;;9.65;7.72;;;23.70;99.90;;;;;;5053770;28;20112;-83
2023/08/12 05:28:46;;;;;;;17.08;10.80;;;23.60;99.90;;;;;;5053419;28;20115;-83
2023/08/12 05:31:12;;;;;;;10.32;7.40;;;23.60;99.90;;;;;;5053794;28;20029;-83
2023/08/12 05:33:37;;;;;;;8.55;6.47;;;23.60;99.90;;;;;;5053624;28;20029;-83
2023/08/12 05:36:03;;;;;;;13.45;10.07;;;23.60;99.90;;;;;;5053331;28;20032;-84
2023/08/12 05:38:29;;;;;;;9.02;7.72;;;23.60;99.90;;;;;;5053467;28;20037;-83
2023/08/12 05:40:54;;;;;;;5.50;4.63;;;23.50;99.90;;;;;;5053226;28;20545;-84
2023/08/12 05:43:20;;;;;;;8.25;5.63;;;23.50;99.90;;;;;;5053376;28;20154;-84
2023/08/12 05:45:46;;;;;;;11.00;8.27;;;23.50;99.90;;;;;;5035363;28;20033;-83
2023/08/12 05:48:11;;;;;;;8.75;6.43;;;23.50;99.90;;;;;;5053780;28;20108;-82
2023/08/12 05:50:37;;;;;;;10.10;6.63;;;23.50;99.90;;;;;;5053477;28;20515;-81
2023/08/12 05:53:03;;;;;;;6.40;5.68;;;23.50;99.90;;;;;;5053196;28;20025;-81
2023/08/12 05:55:29;;;;;;;13.80;9.32;;;23.60;99.90;;;;;;5053532;28;20029;-81
2023/08/12 05:57:54;;;;;;;14.68;11.18;;;23.60;99.90;;;;;;5051833;28;20041;-81
2023/08/12 06:00:20;;;;;;;12.57;10.45;;;23.60;99.90;;;;;;5053978;28;20102;-81
2023/08/12 06:02:45;;;;;;;13.00;8.32;;;23.50;99.90;;;;;;5052525;28;20029;-80
2023/08/12 06:05:11;;;;;;;9.70;6.85;;;23.50;99.90;;;;;;5056884;28;20139;-82
2023/08/12 06:07:37;;;;;;;6.35;5.18;;;23.40;99.90;;;;;;5056816;28;20029;-81
2023/08/12 06:10:03;;;;;;;11.75;8.13;;;23.40;99.90;;;;;;5055482;28;20116;-81
2023/08/12 06:12:29;;;;;;;9.10;7.22;;;23.40;99.90;;;;;;5056760;28;20380;-81
2023/08/12 06:14:55;;;;;;;11.95;7.72;;;23.40;99.90;;;;;;5055450;28;20037;-81
2023/08/12 06:17:20;;;;;;;5.85;4.18;;;23.40;99.90;;;;;;5055864;28;20064;-81
2023/08/12 06:19:46;;;;;;;7.15;4.70;;;23.40;99.90;;;;;;5067032;28;20060;-79
2023/08/12 06:22:11;;;;;;;11.02;6.25;;;23.40;99.90;;;;;;5077115;28;20020;-78
2023/08/12 06:24:37;;;;;;;7.97;5.15;;;23.40;99.90;;;;;;5077934;28;20096;-80
2023/08/12 06:27:03;;;;;;;8.63;5.00;;;23.40;99.90;;;;;;5080447;28;20013;-79
2023/08/12 06:29:28;;;;;;;5.32;3.83;;;23.40;99.90;;;;;;5078873;28;20120;-79
2023/08/12 06:31:54;;;;;;;4.28;3.40;;;23.40;99.90;;;;;;5074598;28;20085;-79
2023/08/12 06:34:20;;;;;;;10.88;6.63;;;23.40;99.90;;;;;;5066506;28;20025;-79
2023/08/12 06:36:46;;;;;;;9.30;5.38;;;23.40;99.90;;;;;;5073083;28;20032;-79
2023/08/12 06:39:12;;;;;;;4.85;3.40;;;23.30;99.90;;;;;;5078404;28;20029;-79
2023/08/12 06:41:37;;;;;;;6.75;4.53;;;23.30;99.90;;;;;;5078541;28;20497;-79
2023/08/12 06:44:04;;;;;;;5.32;3.55;;;23.20;99.90;;;;;;5076883;28;20021;-79
2023/08/12 06:46:30;;;;;;;5.97;3.15;;;23.20;99.90;;;;;;5074849;28;20025;-80
2023/08/12 06:48:56;;;;;;;3.67;2.42;;;23.20;99.90;;;;;;5077426;28;20006;-79
2023/08/12 06:51:22;;;;;;;4.53;2.63;;;23.10;99.90;;;;;;5076015;28;20032;-79
2023/08/12 06:53:47;;;;;;;8.52;3.80;;;23.10;99.90;;;;;;5076218;28;20020;-79
2023/08/12 06:56:13;;;;;;;7.13;3.13;;;23.10;99.90;;;;;;5072571;28;20033;-80
2023/08/12 06:58:38;;;;;;;3.17;2.40;;;23.00;99.90;;;;;;5075145;28;20044;-79
2023/08/12 07:01:04;;;;;;;4.63;2.88;;;23.00;99.90;;;;;;5078166;28;20029;-80
2023/08/12 07:03:30;;;;;;;3.35;2.13;;;23.00;99.90;;;;;;5077770;28;20009;-79
2023/08/12 07:05:56;;;;;;;3.22;2.30;;;23.00;99.90;;;;;;5075884;28;20029;-80
2023/08/12 07:08:22;;;;;;;3.20;2.17;;;23.00;99.90;;;;;;5075027;28;20073;-80
2023/08/12 07:10:47;;;;;;;2.17;1.60;;;23.10;99.90;;;;;;5077639;28;20103;-79
2023/08/12 07:13:13;;;;;;;3.67;2.40;;;23.10;99.90;;;;;;5076474;28;20029;-80
2023/08/12 07:15:38;;;;;;;3.50;1.98;;;23.20;99.90;;;;;;5075980;28;20037;-80
2023/08/12 07:18:04;;;;;;;2.88;1.50;;;23.30;99.90;;;;;;5075794;28;20037;-80
2023/08/12 07:20:30;;;;;;;5.32;2.83;;;23.30;99.90;;;;;;5076443;28;20046;-80
2023/08/12 07:22:56;;;;;;;6.30;3.30;;;23.30;99.90;;;;;;5078191;28;20026;-79
2023/08/12 07:25:22;;;;;;;3.30;2.33;;;23.30;99.90;;;;;;5075861;28;20013;-80
2023/08/12 07:27:48;;;;;;;4.65;2.90;;;23.30;99.90;;;;;;5078537;28;20389;-80
2023/08/12 07:30:13;;;;;;;4.13;2.67;;;23.30;99.90;;;;;;5077529;28;20036;-79
2023/08/12 07:32:39;;;;;;;8.40;3.35;;;23.30;99.90;;;;;;5077171;28;20377;-79
2023/08/12 07:35:05;;;;;;;3.70;2.50;;;23.30;99.90;;;;;;5074295;28;20020;-78
2023/08/12 07:37:31;;;;;;;4.95;3.33;;;23.20;99.90;;;;;;5075970;28;20041;-80
2023/08/12 07:39:57;;;;;;;4.95;3.00;;;23.20;99.90;;;;;;5073487;28;20009;-80
2023/08/12 07:42:23;;;;;;;6.63;2.63;;;23.20;99.90;;;;;;5073527;28;20053;-79
2023/08/12 07:44:49;;;;;;;3.03;2.00;;;23.20;99.90;;;;;;5077899;28;20016;-80
2023/08/12 07:47:18;;;;;;;5.15;2.50;;;23.20;99.90;;;;;;5078975;28;20032;-81
2023/08/12 07:49:43;;;;;;;6.43;3.80;;;23.20;99.90;;;;;;5077020;28;20029;-80
2023/08/12 07:52:09;;;;;;;6.47;2.78;;;23.10;99.90;;;;;;5077354;28;20029;-80
2023/08/12 07:54:36;;;;;;;3.80;2.78;;;23.00;99.90;;;;;;5078282;28;20056;-79
2023/08/12 07:57:02;;;;;;;3.33;2.30;;;23.00;99.90;;;;;;5074947;28;20021;-80
2023/08/12 07:59:28;;;;;;;4.30;3.00;;;23.00;99.90;;;;;;5072956;28;20085;-80
2023/08/12 08:01:53;;;;;;;5.32;2.92;;;23.00;99.90;;;;;;5076362;28;20369;-78
2023/08/12 08:04:19;;;;;;;4.70;2.70;;;22.90;99.90;;;;;;5072785;28;20040;-80
2023/08/12 08:06:45;;;;;;;3.42;2.38;;;22.90;99.90;;;;;;5072780;28;20059;-79
2023/08/12 08:09:10;;;;;;;5.80;2.78;;;22.80;99.90;;;;;;5071086;28;20059;-79
2023/08/12 08:11:36;;;;;;;3.95;2.28;;;22.70;99.90;;;;;;5072657;28;20481;-79
2023/08/12 08:14:02;;;;;;;2.22;1.95;;;22.70;99.90;;;;;;5071926;28;20056;-81
2023/08/12 08:16:27;;;;;;;2.35;1.80;;;22.70;99.90;;;;;;5074417;28;20025;-79
2023/08/12 08:18:53;;;;;;;2.42;1.58;;;22.70;99.90;;;;;;5073589;28;20048;-79
2023/08/12 08:21:19;;;;;;;3.63;1.95;;;22.60;99.90;;;;;;5073122;28;20084;-79
2023/08/12 08:23:44;;;;;;;2.33;1.52;;;22.60;99.90;;;;;;5073659;28;20028;-79
2023/08/12 08:26:10;;;;;;;2.60;1.42;;;22.70;99.90;;;;;;5076412;28;20092;-80
2023/08/12 08:28:35;;;;;;;1.75;1.20;;;22.80;99.90;;;;;;5074843;28;20033;-79
2023/08/12 08:31:01;;;;;;;1.80;1.33;;;22.80;99.90;;;;;;5076833;28;20016;-80
2023/08/12 08:33:27;;;;;;;2.60;1.30;;;22.80;99.90;;;;;;5075911;28;20036;-79
2023/08/12 08:35:54;;;;;;;1.90;1.40;;;22.90;99.90;;;;;;5076267;28;20063;-79
2023/08/12 08:38:20;;;;;;;4.60;1.30;;;22.80;99.90;;;;;;5075241;28;20076;-78
2023/08/12 08:40:45;;;;;;;2.00;1.02;;;22.80;99.90;;;;;;5074346;28;20346;-78
2023/08/12 08:43:15;;;;;;;2.22;1.17;;;22.70;99.90;;;;;;5074123;28;20396;-79
2023/08/12 08:45:43;;;;;;;3.28;1.42;;;22.70;99.90;;;;;;5075126;28;20025;-78
2023/08/12 08:48:11;;;;;;;2.13;1.20;;;22.80;99.90;;;;;;5072915;28;20036;-79
2023/08/12 08:50:39;;;;;;;2.72;1.27;;;22.80;99.90;;;;;;5074749;28;20025;-78
2023/08/12 08:53:06;;;;;;;1.70;1.40;;;22.70;99.90;;;;;;5073265;28;20024;-78
2023/08/12 08:55:32;;;;;;;2.08;1.30;;;22.70;99.90;;;;;;5073408;28;20260;-78
2023/08/12 08:57:58;;;;;;;2.55;1.38;;;22.70;99.90;;;;;;5070256;28;20397;-79
2023/08/12 09:00:25;;;;;;;1.15;1.00;;;22.70;99.90;;;;;;5069295;28;20025;-79
2023/08/12 09:02:51;;;;;;;1.15;0.90;;;22.70;99.90;;;;;;5065240;28;20043;-78
2023/08/12 09:05:18;;;;;;;1.65;0.90;;;22.70;99.90;;;;;;5069124;28;20057;-77
2023/08/12 09:07:45;;;;;;;2.40;1.02;;;22.60;99.90;;;;;;5070905;28;20021;-77
2023/08/12 09:10:11;;;;;;;1.30;1.10;;;22.60;99.90;;;;;;5071618;28;20035;-78
2023/08/12 09:12:43;;;;;;;1.58;1.10;;;22.60;99.90;;;;;;5065889;28;20032;-79
2023/08/12 09:15:09;;;;;;;1.50;1.30;;;22.60;99.90;;;;;;5064022;28;20025;-76
2023/08/12 09:17:35;;;;;;;1.38;1.27;;;22.60;99.90;;;;;;5065381;28;20048;-78
2023/08/12 09:20:00;;;;;;;1.00;0.85;;;22.60;99.90;;;;;;5061030;28;20029;-78
2023/08/12 09:22:26;;;;;;;1.15;0.95;;;22.50;99.90;;;;;;5059977;28;20037;-79
2023/08/12 09:24:58;;;;;;;1.17;0.93;;;22.40;99.90;;;;;;5060754;28;20099;-78
2023/08/12 09:27:24;;;;;;;3.08;1.40;;;22.40;99.90;;;;;;5059450;28;20087;-79
2023/08/12 09:29:55;;;;;;;1.33;1.10;;;22.30;99.90;;;;;;5058213;28;20438;-78
2023/08/12 09:32:20;;;;;;;0.70;0.40;;;22.20;99.90;;;;;;5055837;28;20029;-78
2023/08/12 09:34:54;;;;;;;2.30;0.30;;;22.20;99.90;;;;;;5057707;28;20029;-78
2023/08/12 09:37:23;;;;;;;0.43;0.30;;;22.10;99.90;;;;;;5057966;28;20029;-78
2023/08/12 09:39:50;;;;;;;0.75;0.40;;;22.10;99.90;;;;;;5059738;28;20025;-79
2023/08/12 09:42:16;;;;;;;1.35;0.30;;;22.10;99.90;;;;;;5062966;28;20053;-80
2023/08/12 09:44:42;;;;;;;0.95;0.30;;;22.20;99.90;;;;;;5063232;28;20037;-80
2023/08/12 09:47:08;;;;;;;0.52;0.20;;;22.20;99.90;;;;;;5062149;28;20029;-80
2023/08/12 09:49:35;;;;;;;0.40;0.20;;;22.20;99.90;;;;;;5063941;28;20374;-79
2023/08/12 09:52:02;;;;;;;0.55;0.20;;;22.20;99.90;;;;;;5047163;28;20033;-80
2023/08/12 09:54:30;;;;;;;0.20;0.20;;;22.30;99.90;;;;;;5065663;28;20115;-80
2023/08/12 09:57:01;;;;;;;0.85;0.20;;;22.40;99.90;;;;;;5064044;28;20029;-78
2023/08/12 09:59:35;;;;;;;0.30;0.10;;;22.40;99.90;;;;;;5065550;28;20029;-80
2023/08/12 10:02:07;;;;;;;3.15;0.10;;;22.40;99.90;;;;;;5066408;28;20036;-80
2023/08/12 10:04:45;;;;;;;0.10;0.10;;;22.50;99.90;;;;;;5066919;28;20025;-81
2023/08/12 10:07:14;;;;;;;0.30;0.10;;;22.50;99.90;;;;;;5066477;28;20071;-81
2023/08/12 10:09:41;;;;;;;1.55;0.10;;;22.50;99.90;;;;;;5065138;28;20120;-79
2023/08/12 10:12:07;;;;;;;0.57;0.20;;;22.50;99.90;;;;;;5070894;28;20035;-81
2023/08/12 10:14:33;;;;;;;0.43;0.10;;;22.50;99.90;;;;;;5069068;28;20048;-80
2023/08/12 10:17:00;;;;;;;0.20;0.10;;;22.60;99.90;;;;;;5073165;28;20013;-81
2023/08/12 10:19:28;;;;;;;0.47;0.20;;;22.80;99.90;;;;;;5072592;28;20040;-81
2023/08/12 10:21:58;;;;;;;0.65;0.10;;;23.00;99.90;;;;;;5073852;28;20119;-81
2023/08/12 10:24:26;;;;;;;0.47;0.20;;;23.10;99.90;;;;;;5072844;28;20036;-80
2023/08/12 10:26:54;;;;;;;1.10;0.17;;;23.10;99.90;;;;;;5069739;28;20036;-80
2023/08/12 10:29:22;;;;;;;0.40;0.17;;;23.00;99.90;;;;;;5070528;28;20063;-81
2023/08/12 10:31:48;;;;;;;0.45;0.10;;;22.90;99.90;;;;;;5066148;28;20036;-82
2023/08/12 10:34:32;;;;;;;0.60;0.20;;;22.80;99.90;;;;;;5066118;28;20025;-81
2023/08/12 10:37:02;;;;;;;0.85;0.50;;;22.60;99.90;;;;;;5066054;28;20040;-81
2023/08/12 10:39:28;;;;;;;0.57;0.20;;;22.40;99.90;;;;;;5063969;28;20060;-81
2023/08/12 10:41:55;;;;;;;1.08;0.35;;;22.40;99.90;;;;;;5063697;28;20377;-81
2023/08/12 10:44:25;;;;;;;0.70;0.40;;;22.30;99.90;;;;;;5062245;28;20033;-81
2023/08/12 10:46:52;;;;;;;1.27;0.57;;;22.20;99.90;;;;;;5066664;28;20033;-81
2023/08/12 10:49:20;;;;;;;2.15;0.60;;;22.20;99.90;;;;;;5061716;28;20087;-80
2023/08/12 10:51:48;;;;;;;3.05;0.80;;;22.10;99.90;;;;;;5064025;28;20450;-81
2023/08/12 10:54:20;;;;;;;1.27;0.50;;;22.20;99.90;;;;;;5062105;28;20380;-81
2023/08/12 10:57:11;;;;;;;2.90;0.80;;;22.30;99.90;;;;;;5062905;28;20029;-81
2023/08/12 10:59:45;;;;;;;2.25;0.57;;;22.50;99.90;;;;;;5060370;28;20379;-81
2023/08/12 11:02:19;;;;;;;1.65;0.80;;;22.70;99.90;;;;;;5065465;28;20049;-81
2023/08/12 11:04:52;;;;;;;1.65;0.40;;;22.80;99.90;;;;;;5064319;28;20037;-81
2023/08/12 11:07:19;;;;;;;1.70;0.47;;;22.90;99.90;;;;;;5067051;28;20028;-81
2023/08/12 11:09:45;;;;;;;4.20;0.70;;;22.80;99.90;;;;;;5064576;28;20473;-80
2023/08/12 11:12:16;;;;;;;1.15;0.30;;;22.80;99.90;;;;;;5061780;28;20025;-81
2023/08/12 11:14:54;;;;;;;1.88;0.40;;;22.90;99.90;;;;;;5061226;28;20068;-82
2023/08/12 11:17:27;;;;;;;3.05;0.70;;;22.90;99.90;;;;;;5062134;28;20531;-82
2023/08/12 11:19:53;;;;;;;1.10;0.50;;;23.10;99.90;;;;;;5065884;28;20029;-82
2023/08/12 11:22:18;;;;;;;2.72;0.38;;;23.10;99.90;;;;;;5048426;28;20083;-81
2023/08/12 11:24:44;;;;;;;3.75;0.60;;;23.30;99.90;;;;;;5072162;28;20033;-83
2023/08/12 11:27:13;;;;;;;3.40;0.30;;;23.30;99.90;;;;;;5066877;28;20025;-83
2023/08/12 11:29:38;;;;;;;2.22;0.50;;;23.50;99.90;;;;;;5066504;28;20037;-82
2023/08/12 11:32:05;;;;;;;2.10;0.50;;;23.70;99.90;;;;;;5070915;28;20029;-83
2023/08/12 11:34:32;;;;;;;2.17;0.50;;;23.90;99.20;;;;;;5070001;28;20024;-82
2023/08/12 11:36:58;;;;;;;2.53;0.77;;;23.90;98.30;;;;;;5070983;28;20408;-82
2023/08/12 11:39:24;;;;;;;2.45;0.57;;;24.00;98.40;;;;;;5069765;28;20041;-82
2023/08/12 11:41:50;;;;;;;4.22;0.65;;;24.10;99.10;;;;;;5066387;28;20141;-83
2023/08/12 11:44:17;;;;;;;2.67;0.50;;;24.20;98.30;;;;;;5063053;28;20060;-83
2023/08/12 11:46:42;;;;;;;2.22;0.60;;;24.20;97.80;;;;;;5075910;28;20036;-83
2023/08/12 11:49:08;;;;;;;3.90;0.75;;;24.30;98.50;;;;;;5059944;28;20478;-83
2023/08/12 11:51:35;;;;;;;4.53;0.70;;;24.30;97.90;;;;;;5058219;28;20064;-83
2023/08/12 11:54:01;;;;;;;5.68;1.08;;;24.30;97.70;;;;;;5059338;28;20506;-83
2023/08/12 11:56:26;;;;;;;4.00;1.00;;;24.30;97.30;;;;;;5058926;28;20056;-83
2023/08/12 11:58:56;;;;;;;4.68;0.70;;;24.30;97.30;;;;;;5059651;28;20037;-83
2023/08/12 12:01:23;;;;;;;3.47;0.70;;;24.40;97.30;;;;;;5057681;28;20087;-83
2023/08/12 12:03:52;;;;;;;4.63;1.02;;;24.50;96.80;;;;;;5059150;28;20037;-84
2023/08/12 12:06:31;;;;;;;5.57;1.10;;;24.60;96.10;;;;;;5057054;28;20025;-82
2023/08/12 12:08:59;;;;;;;4.32;1.00;;;24.60;95.90;;;;;;5056247;28;20107;-82
2023/08/12 12:11:25;;;;;;;3.35;0.80;;;24.50;96.10;;;;;;5056562;28;20033;-84
2023/08/12 12:13:51;;;;;;;3.10;0.60;;;24.40;96.40;;;;;;5057452;28;20078;-84
2023/08/12 12:16:16;;;;;;;2.60;0.93;;;24.40;96.60;;;;;;5056849;28;20029;-83
2023/08/12 12:18:42;;;;;;;3.50;0.82;;;24.50;96.20;;;;;;5057371;28;20041;-83
2023/08/12 12:21:07;;;;;;;7.18;1.20;;;24.50;96.30;;;;;;5054813;28;20037;-82
2023/08/12 12:23:37;;;;;;;6.30;0.80;;;24.60;96.60;;;;;;5057717;28;20067;-85
2023/08/12 12:26:03;;;;;;;3.85;0.65;;;24.80;96.80;;;;;;5055735;28;20411;-82
2023/08/12 12:28:29;;;;;;;3.58;0.60;;;25.10;96.70;;;;;;5055553;28;20036;-82
2023/08/12 12:30:55;;;;;;;4.43;0.70;;;25.20;95.60;;;;;;5056044;28;20055;-82
2023/08/12 12:33:21;;;;;;;4.28;0.63;;;25.20;94.60;;;;;;5055908;28;20469;-83
2023/08/12 12:35:46;;;;;;;4.07;1.08;;;25.30;94.30;;;;;;5038553;28;20367;-83
2023/08/12 12:38:13;;;;;;;5.05;1.02;;;25.30;93.30;;;;;;5058849;28;20071;-82
2023/08/12 12:40:39;;;;;;;5.03;0.77;;;25.20;92.50;;;;;;5058058;28;20032;-82
2023/08/12 12:43:04;;;;;;;6.95;1.50;;;25.10;92.70;;;;;;5059208;28;20049;-81